sensor_id;sensor_type;location;lat;lon;timestamp;P1;durP1;ratioP1;P2;durP2;ratioP2
6941;SDS011;3510;43.200;27.920;2023-06-14T00:01:15;2.03;;;1.70;;
6941;SDS011;3510;43.200;27.920;2023-06-14T00:03:42;1.88;;;1.77;;
6941;SDS011;3510;43.200;27.920;2023-06-14T00:06:09;2.60;;;1.80;;
6941;SDS011;3510;43.200;27.920;2023-06-14T00:08:36;1.80;;;1.70;;
6941;SDS011;3510;43.200;27.920;2023-06-14T00:11:04;1.80;;;1.70;;
6941;SDS011;3510;43.200;27.920;2023-06-14T00:13:31;2.15;;;2.00;;
6941;SDS011;3510;43.200;27.920;2023-06-14T00:16:00;2.10;;;2.00;;
6941;SDS011;3510;43.200;27.920;2023-06-14T00:18:26;1.98;;;1.88;;
6941;SDS011;3510;43.200;27.920;2023-06-14T00:20:54;2.03;;;1.93;;
6941;SDS011;3510;43.200;27.920;2023-06-14T00:23:22;2.03;;;1.92;;
6941;SDS011;3510;43.200;27.920;2023-06-14T00:25:49;2.10;;;2.00;;
6941;SDS011;3510;43.200;27.920;2023-06-14T00:28:17;2.45;;;2.28;;
6941;SDS011;3510;43.200;27.920;2023-06-14T00:30:44;2.78;;;2.20;;
6941;SDS011;3510;43.200;27.920;2023-06-14T00:33:13;2.30;;;2.20;;
6941;SDS011;3510;43.200;27.920;2023-06-14T00:35:40;2.20;;;2.10;;
6941;SDS011;3510;43.200;27.920;2023-06-14T00:38:07;2.30;;;2.20;;
6941;SDS011;3510;43.200;27.920;2023-06-14T00:40:33;2.30;;;2.10;;
6941;SDS011;3510;43.200;27.920;2023-06-14T00:43:00;2.20;;;2.10;;
6941;SDS011;3510;43.200;27.920;2023-06-14T00:45:27;2.33;;;2.17;;
6941;SDS011;3510;43.200;27.920;2023-06-14T00:47:56;2.30;;;2.20;;
6941;SDS011;3510;43.200;27.920;2023-06-14T00:50:25;2.30;;;2.20;;
6941;SDS011;3510;43.200;27.920;2023-06-14T00:52:52;2.50;;;2.30;;
6941;SDS011;3510;43.200;27.920;2023-06-14T00:55:19;2.13;;;2.03;;
6941;SDS011;3510;43.200;27.920;2023-06-14T00:57:46;4.05;;;2.50;;
6941;SDS011;3510;43.200;27.920;2023-06-14T01:00:13;2.30;;;2.20;;
6941;SDS011;3510;43.200;27.920;2023-06-14T01:02:40;2.60;;;2.50;;
6941;SDS011;3510;43.200;27.920;2023-06-14T01:05:08;3.33;;;2.60;;
6941;SDS011;3510;43.200;27.920;2023-06-14T01:07:41;2.92;;;2.45;;
6941;SDS011;3510;43.200;27.920;2023-06-14T01:10:19;2.78;;;2.58;;
6941;SDS011;3510;43.200;27.920;2023-06-14T01:12:55;2.50;;;2.40;;
6941;SDS011;3510;43.200;27.920;2023-06-14T01:15:29;3.27;;;2.53;;
6941;SDS011;3510;43.200;27.920;2023-06-14T01:17:57;3.30;;;3.08;;
6941;SDS011;3510;43.200;27.920;2023-06-14T01:20:28;3.17;;;2.97;;
6941;SDS011;3510;43.200;27.920;2023-06-14T01:22:57;4.50;;;3.00;;
6941;SDS011;3510;43.200;27.920;2023-06-14T01:25:25;3.80;;;3.50;;
6941;SDS011;3510;43.200;27.920;2023-06-14T01:27:53;4.00;;;3.60;;
6941;SDS011;3510;43.200;27.920;2023-06-14T01:30:24;3.95;;;3.53;;
6941;SDS011;3510;43.200;27.920;2023-06-14T01:32:51;3.90;;;3.60;;
6941;SDS011;3510;43.200;27.920;2023-06-14T01:35:20;3.90;;;3.58;;
6941;SDS011;3510;43.200;27.920;2023-06-14T01:37:47;3.67;;;3.23;;
6941;SDS011;3510;43.200;27.920;2023-06-14T01:40:16;3.10;;;2.90;;
6941;SDS011;3510;43.200;27.920;2023-06-14T01:42:46;3.30;;;3.10;;
6941;SDS011;3510;43.200;27.920;2023-06-14T01:45:14;3.45;;;3.15;;
6941;SDS011;3510;43.200;27.920;2023-06-14T01:47:41;3.60;;;3.30;;
6941;SDS011;3510;43.200;27.920;2023-06-14T01:50:10;2.97;;;2.78;;
6941;SDS011;3510;43.200;27.920;2023-06-14T01:52:37;6.03;;;3.30;;
6941;SDS011;3510;43.200;27.920;2023-06-14T01:55:05;3.55;;;2.90;;
6941;SDS011;3510;43.200;27.920;2023-06-14T01:57:34;3.00;;;2.80;;
6941;SDS011;3510;43.200;27.920;2023-06-14T02:00:01;2.87;;;2.43;;
6941;SDS011;3510;43.200;27.920;2023-06-14T02:02:29;3.20;;;2.90;;
6941;SDS011;3510;43.200;27.920;2023-06-14T02:04:55;3.45;;;3.17;;
6941;SDS011;3510;43.200;27.920;2023-06-14T02:07:23;3.58;;;3.28;;
6941;SDS011;3510;43.200;27.920;2023-06-14T02:09:50;4.03;;;3.72;;
6941;SDS011;3510;43.200;27.920;2023-06-14T02:12:18;5.00;;;3.83;;
6941;SDS011;3510;43.200;27.920;2023-06-14T02:14:48;4.60;;;4.28;;
6941;SDS011;3510;43.200;27.920;2023-06-14T02:17:15;4.83;;;4.37;;
6941;SDS011;3510;43.200;27.920;2023-06-14T02:19:42;6.85;;;4.50;;
6941;SDS011;3510;43.200;27.920;2023-06-14T02:22:09;4.65;;;4.35;;
6941;SDS011;3510;43.200;27.920;2023-06-14T02:24:36;5.03;;;4.57;;
6941;SDS011;3510;43.200;27.920;2023-06-14T02:27:03;5.63;;;4.82;;
6941;SDS011;3510;43.200;27.920;2023-06-14T02:29:31;5.28;;;4.78;;
6941;SDS011;3510;43.200;27.920;2023-06-14T02:31:59;5.80;;;5.30;;
6941;SDS011;3510;43.200;27.920;2023-06-14T02:34:26;5.90;;;5.43;;
6941;SDS011;3510;43.200;27.920;2023-06-14T02:36:53;5.53;;;5.13;;
6941;SDS011;3510;43.200;27.920;2023-06-14T02:39:20;5.57;;;5.07;;
6941;SDS011;3510;43.200;27.920;2023-06-14T02:41:48;5.43;;;5.03;;
6941;SDS011;3510;43.200;27.920;2023-06-14T02:44:15;5.40;;;5.00;;
6941;SDS011;3510;43.200;27.920;2023-06-14T02:46:47;4.85;;;4.35;;
6941;SDS011;3510;43.200;27.920;2023-06-14T02:49:15;4.77;;;4.37;;
6941;SDS011;3510;43.200;27.920;2023-06-14T02:51:41;5.80;;;5.13;;
6941;SDS011;3510;43.200;27.920;2023-06-14T02:54:08;5.63;;;5.03;;
6941;SDS011;3510;43.200;27.920;2023-06-14T02:56:35;5.03;;;4.70;;
6941;SDS011;3510;43.200;27.920;2023-06-14T02:59:02;5.72;;;5.18;;
6941;SDS011;3510;43.200;27.920;2023-06-14T03:01:39;5.75;;;5.07;;
6941;SDS011;3510;43.200;27.920;2023-06-14T03:04:06;5.95;;;5.47;;
6941;SDS011;3510;43.200;27.920;2023-06-14T03:06:34;6.32;;;5.47;;
6941;SDS011;3510;43.200;27.920;2023-06-14T03:09:02;6.20;;;5.55;;
6941;SDS011;3510;43.200;27.920;2023-06-14T03:11:31;6.22;;;5.70;;
6941;SDS011;3510;43.200;27.920;2023-06-14T03:13:58;4.97;;;4.55;;
6941;SDS011;3510;43.200;27.920;2023-06-14T03:16:25;7.20;;;6.50;;
6941;SDS011;3510;43.200;27.920;2023-06-14T03:18:55;6.57;;;6.03;;
6941;SDS011;3510;43.200;27.920;2023-06-14T03:21:22;8.57;;;6.67;;
6941;SDS011;3510;43.200;27.920;2023-06-14T03:23:51;6.70;;;6.20;;
6941;SDS011;3510;43.200;27.920;2023-06-14T03:26:19;6.47;;;5.95;;
6941;SDS011;3510;43.200;27.920;2023-06-14T03:28:46;5.80;;;5.30;;
6941;SDS011;3510;43.200;27.920;2023-06-14T03:31:14;7.67;;;5.80;;
6941;SDS011;3510;43.200;27.920;2023-06-14T03:33:42;5.50;;;5.10;;
6941;SDS011;3510;43.200;27.920;2023-06-14T03:36:09;6.03;;;5.35;;
6941;SDS011;3510;43.200;27.920;2023-06-14T03:38:36;5.45;;;4.95;;
6941;SDS011;3510;43.200;27.920;2023-06-14T03:41:04;8.88;;;5.38;;
6941;SDS011;3510;43.200;27.920;2023-06-14T03:43:31;6.10;;;5.15;;
6941;SDS011;3510;43.200;27.920;2023-06-14T03:45:58;6.07;;;5.47;;
6941;SDS011;3510;43.200;27.920;2023-06-14T03:48:25;6.70;;;6.07;;
6941;SDS011;3510;43.200;27.920;2023-06-14T03:50:51;6.40;;;5.68;;
6941;SDS011;3510;43.200;27.920;2023-06-14T03:53:20;6.65;;;5.93;;
6941;SDS011;3510;43.200;27.920;2023-06-14T03:55:48;6.47;;;5.53;;
6941;SDS011;3510;43.200;27.920;2023-06-14T03:58:18;5.55;;;5.15;;
6941;SDS011;3510;43.200;27.920;2023-06-14T04:00:45;5.72;;;5.22;;
6941;SDS011;3510;43.200;27.920;2023-06-14T04:03:12;6.80;;;5.53;;
6941;SDS011;3510;43.200;27.920;2023-06-14T04:05:40;6.00;;;5.50;;
6941;SDS011;3510;43.200;27.920;2023-06-14T04:08:09;5.88;;;5.47;;
6941;SDS011;3510;43.200;27.920;2023-06-14T04:10:39;10.10;;;7.20;;
6941;SDS011;3510;43.200;27.920;2023-06-14T04:13:09;8.65;;;7.75;;
6941;SDS011;3510;43.200;27.920;2023-06-14T04:15:40;10.60;;;8.65;;
6941;SDS011;3510;43.200;27.920;2023-06-14T04:18:08;9.52;;;8.63;;
6941;SDS011;3510;43.200;27.920;2023-06-14T04:20:36;9.40;;;8.48;;
6941;SDS011;3510;43.200;27.920;2023-06-14T04:23:11;10.13;;;8.38;;
6941;SDS011;3510;43.200;27.920;2023-06-14T04:25:38;11.97;;;9.13;;
6941;SDS011;3510;43.200;27.920;2023-06-14T04:28:06;11.27;;;10.10;;
6941;SDS011;3510;43.200;27.920;2023-06-14T04:30:34;15.88;;;12.00;;
6941;SDS011;3510;43.200;27.920;2023-06-14T04:33:05;19.08;;;11.82;;
6941;SDS011;3510;43.200;27.920;2023-06-14T04:35:32;15.00;;;12.02;;
6941;SDS011;3510;43.200;27.920;2023-06-14T04:38:02;15.32;;;12.43;;
6941;SDS011;3510;43.200;27.920;2023-06-14T04:40:30;13.40;;;11.43;;
6941;SDS011;3510;43.200;27.920;2023-06-14T04:42:59;12.93;;;11.35;;
6941;SDS011;3510;43.200;27.920;2023-06-14T04:45:26;12.95;;;10.00;;
6941;SDS011;3510;43.200;27.920;2023-06-14T04:47:58;9.68;;;8.88;;
6941;SDS011;3510;43.200;27.920;2023-06-14T04:50:26;9.40;;;8.60;;
6941;SDS011;3510;43.200;27.920;2023-06-14T04:52:55;10.68;;;8.30;;
6941;SDS011;3510;43.200;27.920;2023-06-14T04:55:22;15.25;;;8.60;;
6941;SDS011;3510;43.200;27.920;2023-06-14T04:57:49;7.40;;;6.82;;
6941;SDS011;3510;43.200;27.920;2023-06-14T05:00:19;6.63;;;6.13;;
6941;SDS011;3510;43.200;27.920;2023-06-14T05:02:46;6.43;;;5.93;;
6941;SDS011;3510;43.200;27.920;2023-06-14T05:05:16;7.18;;;6.57;;
6941;SDS011;3510;43.200;27.920;2023-06-14T05:07:46;6.78;;;6.18;;
6941;SDS011;3510;43.200;27.920;2023-06-14T05:10:13;6.50;;;5.97;;
6941;SDS011;3510;43.200;27.920;2023-06-14T05:12:41;7.03;;;6.33;;
6941;SDS011;3510;43.200;27.920;2023-06-14T05:15:08;6.95;;;6.35;;
6941;SDS011;3510;43.200;27.920;2023-06-14T05:17:36;6.85;;;5.97;;
6941;SDS011;3510;43.200;27.920;2023-06-14T05:20:06;6.70;;;6.18;;
6941;SDS011;3510;43.200;27.920;2023-06-14T05:22:35;6.65;;;6.13;;
6941;SDS011;3510;43.200;27.920;2023-06-14T05:25:11;7.03;;;6.40;;
6941;SDS011;3510;43.200;27.920;2023-06-14T05:27:38;6.70;;;5.47;;
6941;SDS011;3510;43.200;27.920;2023-06-14T05:30:07;6.90;;;6.32;;
6941;SDS011;3510;43.200;27.920;2023-06-14T05:32:34;7.23;;;6.63;;
6941;SDS011;3510;43.200;27.920;2023-06-14T05:35:01;7.25;;;6.55;;
6941;SDS011;3510;43.200;27.920;2023-06-14T05:37:28;11.48;;;6.55;;
6941;SDS011;3510;43.200;27.920;2023-06-14T05:39:56;7.30;;;6.07;;
6941;SDS011;3510;43.200;27.920;2023-06-14T05:42:24;7.07;;;6.40;;
6941;SDS011;3510;43.200;27.920;2023-06-14T05:44:50;6.28;;;5.78;;
6941;SDS011;3510;43.200;27.920;2023-06-14T05:47:17;6.47;;;5.97;;
6941;SDS011;3510;43.200;27.920;2023-06-14T05:49:44;6.20;;;5.78;;
6941;SDS011;3510;43.200;27.920;2023-06-14T05:52:14;6.72;;;6.22;;
6941;SDS011;3510;43.200;27.920;2023-06-14T05:54:40;6.50;;;6.00;;
6941;SDS011;3510;43.200;27.920;2023-06-14T05:57:08;6.43;;;5.90;;
6941;SDS011;3510;43.200;27.920;2023-06-14T05:59:38;6.78;;;6.28;;
6941;SDS011;3510;43.200;27.920;2023-06-14T06:02:05;5.80;;;5.40;;
6941;SDS011;3510;43.200;27.920;2023-06-14T06:04:32;6.32;;;5.70;;
6941;SDS011;3510;43.200;27.920;2023-06-14T06:07:00;5.93;;;5.32;;
6941;SDS011;3510;43.200;27.920;2023-06-14T06:09:26;7.28;;;5.47;;
6941;SDS011;3510;43.200;27.920;2023-06-14T06:11:53;6.65;;;5.32;;
6941;SDS011;3510;43.200;27.920;2023-06-14T06:14:20;7.10;;;5.20;;
6941;SDS011;3510;43.200;27.920;2023-06-14T06:23:22;5.15;;;4.80;;
6941;SDS011;3510;43.200;27.920;2023-06-14T06:25:50;5.60;;;5.10;;
6941;SDS011;3510;43.200;27.920;2023-06-14T06:46:11;8.63;;;4.20;;
6941;SDS011;3510;43.200;27.920;2023-06-14T06:48:39;4.28;;;4.07;;
6941;SDS011;3510;43.200;27.920;2023-06-14T06:51:06;4.38;;;4.05;;
6941;SDS011;3510;43.200;27.920;2023-06-14T06:53:38;6.82;;;4.05;;
6941;SDS011;3510;43.200;27.920;2023-06-14T06:56:07;4.45;;;3.88;;
6941;SDS011;3510;43.200;27.920;2023-06-14T06:58:35;4.13;;;3.83;;
6941;SDS011;3510;43.200;27.920;2023-06-14T07:01:01;3.92;;;3.60;;
6941;SDS011;3510;43.200;27.920;2023-06-14T07:03:30;3.63;;;3.42;;
6941;SDS011;3510;43.200;27.920;2023-06-14T07:05:57;6.40;;;4.47;;
6941;SDS011;3510;43.200;27.920;2023-06-14T07:08:24;4.50;;;4.10;;
6941;SDS011;3510;43.200;27.920;2023-06-14T07:10:52;10.05;;;3.88;;
6941;SDS011;3510;43.200;27.920;2023-06-14T07:13:20;6.47;;;3.75;;
6941;SDS011;3510;43.200;27.920;2023-06-14T07:15:46;10.25;;;4.93;;
6941;SDS011;3510;43.200;27.920;2023-06-14T07:18:13;3.83;;;3.53;;
6941;SDS011;3510;43.200;27.920;2023-06-14T07:20:40;3.45;;;2.20;;
6941;SDS011;3510;43.200;27.920;2023-06-14T07:23:08;5.70;;;2.80;;
6941;SDS011;3510;43.200;27.920;2023-06-14T07:25:36;2.95;;;2.58;;
6941;SDS011;3510;43.200;27.920;2023-06-14T07:28:03;2.60;;;2.47;;
6941;SDS011;3510;43.200;27.920;2023-06-14T07:30:38;4.70;;;2.55;;
6941;SDS011;3510;43.200;27.920;2023-06-14T07:33:05;2.72;;;2.13;;
6941;SDS011;3510;43.200;27.920;2023-06-14T07:35:33;1.98;;;1.88;;
6941;SDS011;3510;43.200;27.920;2023-06-14T07:38:00;1.90;;;1.80;;
6941;SDS011;3510;43.200;27.920;2023-06-14T07:40:27;3.72;;;2.38;;
6941;SDS011;3510;43.200;27.920;2023-06-14T07:42:54;3.53;;;2.28;;
6941;SDS011;3510;43.200;27.920;2023-06-14T07:45:35;2.00;;;1.90;;
6941;SDS011;3510;43.200;27.920;2023-06-14T07:48:04;1.85;;;1.75;;
6941;SDS011;3510;43.200;27.920;2023-06-14T07:50:30;1.90;;;1.80;;
6941;SDS011;3510;43.200;27.920;2023-06-14T07:52:57;4.72;;;2.15;;
6941;SDS011;3510;43.200;27.920;2023-06-14T07:55:24;2.08;;;1.98;;
6941;SDS011;3510;43.200;27.920;2023-06-14T07:57:53;2.55;;;2.35;;
6941;SDS011;3510;43.200;27.920;2023-06-14T08:00:35;1.80;;;1.70;;
6941;SDS011;3510;43.200;27.920;2023-06-14T08:03:01;4.10;;;2.20;;
6941;SDS011;3510;43.200;27.920;2023-06-14T08:05:30;3.90;;;2.60;;
6941;SDS011;3510;43.200;27.920;2023-06-14T08:07:58;4.13;;;3.10;;
6941;SDS011;3510;43.200;27.920;2023-06-14T08:12:59;3.22;;;2.92;;
6941;SDS011;3510;43.200;27.920;2023-06-14T08:15:27;3.20;;;2.67;;
6941;SDS011;3510;43.200;27.920;2023-06-14T08:17:54;6.85;;;2.83;;
6941;SDS011;3510;43.200;27.920;2023-06-14T08:20:23;4.15;;;2.72;;
6941;SDS011;3510;43.200;27.920;2023-06-14T08:22:51;14.50;;;4.18;;
6941;SDS011;3510;43.200;27.920;2023-06-14T08:25:21;5.28;;;3.50;;
6941;SDS011;3510;43.200;27.920;2023-06-14T08:27:49;3.63;;;3.33;;
6941;SDS011;3510;43.200;27.920;2023-06-14T08:30:16;3.40;;;3.20;;
6941;SDS011;3510;43.200;27.920;2023-06-14T08:32:43;2.88;;;2.67;;
6941;SDS011;3510;43.200;27.920;2023-06-14T08:35:10;6.40;;;3.05;;
6941;SDS011;3510;43.200;27.920;2023-06-14T08:37:40;2.67;;;2.47;;
6941;SDS011;3510;43.200;27.920;2023-06-14T08:40:18;2.97;;;2.83;;
6941;SDS011;3510;43.200;27.920;2023-06-14T08:42:51;8.50;;;3.20;;
6941;SDS011;3510;43.200;27.920;2023-06-14T08:45:19;4.65;;;2.30;;
6941;SDS011;3510;43.200;27.920;2023-06-14T08:47:46;4.13;;;2.90;;
6941;SDS011;3510;43.200;27.920;2023-06-14T08:50:18;4.03;;;3.25;;
6941;SDS011;3510;43.200;27.920;2023-06-14T08:52:51;6.63;;;3.72;;
6941;SDS011;3510;43.200;27.920;2023-06-14T08:55:22;7.80;;;3.13;;
6941;SDS011;3510;43.200;27.920;2023-06-14T08:57:53;3.60;;;3.40;;
6941;SDS011;3510;43.200;27.920;2023-06-14T09:00:35;3.28;;;3.10;;
6941;SDS011;3510;43.200;27.920;2023-06-14T09:03:03;3.60;;;3.30;;
6941;SDS011;3510;43.200;27.920;2023-06-14T09:05:30;2.75;;;2.60;;
6941;SDS011;3510;43.200;27.920;2023-06-14T09:08:12;2.53;;;2.42;;
6941;SDS011;3510;43.200;27.920;2023-06-14T09:10:39;4.38;;;3.65;;
6941;SDS011;3510;43.200;27.920;2023-06-14T09:13:20;2.80;;;2.70;;
6941;SDS011;3510;43.200;27.920;2023-06-14T09:16:04;3.78;;;2.88;;
6941;SDS011;3510;43.200;27.920;2023-06-14T09:18:46;3.63;;;2.90;;
6941;SDS011;3510;43.200;27.920;2023-06-14T09:21:14;3.22;;;2.95;;
6941;SDS011;3510;43.200;27.920;2023-06-14T09:23:44;4.63;;;3.40;;
6941;SDS011;3510;43.200;27.920;2023-06-14T09:26:12;3.03;;;2.78;;
6941;SDS011;3510;43.200;27.920;2023-06-14T09:28:41;4.32;;;3.97;;
6941;SDS011;3510;43.200;27.920;2023-06-14T09:31:10;3.40;;;3.20;;
6941;SDS011;3510;43.200;27.920;2023-06-14T09:33:37;3.13;;;2.88;;
6941;SDS011;3510;43.200;27.920;2023-06-14T09:36:08;3.08;;;2.83;;
6941;SDS011;3510;43.200;27.920;2023-06-14T09:38:39;2.80;;;2.70;;
6941;SDS011;3510;43.200;27.920;2023-06-14T09:41:08;5.90;;;2.88;;
6941;SDS011;3510;43.200;27.920;2023-06-14T09:43:35;6.00;;;2.83;;
6941;SDS011;3510;43.200;27.920;2023-06-14T09:46:04;3.22;;;3.03;;
6941;SDS011;3510;43.200;27.920;2023-06-14T09:48:32;4.03;;;3.60;;
6941;SDS011;3510;43.200;27.920;2023-06-14T09:51:13;2.55;;;2.45;;
6941;SDS011;3510;43.200;27.920;2023-06-14T09:53:43;4.38;;;2.90;;
6941;SDS011;3510;43.200;27.920;2023-06-14T09:56:15;3.00;;;2.85;;
6941;SDS011;3510;43.200;27.920;2023-06-14T09:58:45;4.68;;;3.03;;
6941;SDS011;3510;43.200;27.920;2023-06-14T10:01:14;2.88;;;2.78;;
6941;SDS011;3510;43.200;27.920;2023-06-14T10:03:44;8.75;;;3.30;;
6941;SDS011;3510;43.200;27.920;2023-06-14T10:06:13;4.40;;;3.03;;
6941;SDS011;3510;43.200;27.920;2023-06-14T10:08:43;6.13;;;2.80;;
6941;SDS011;3510;43.200;27.920;2023-06-14T10:11:12;2.83;;;2.72;;
6941;SDS011;3510;43.200;27.920;2023-06-14T10:13:50;4.45;;;2.67;;
6941;SDS011;3510;43.200;27.920;2023-06-14T10:16:20;5.20;;;2.58;;
6941;SDS011;3510;43.200;27.920;2023-06-14T10:18:54;5.13;;;3.33;;
6941;SDS011;3510;43.200;27.920;2023-06-14T10:21:32;9.30;;;4.45;;
6941;SDS011;3510;43.200;27.920;2023-06-14T10:24:08;4.03;;;3.00;;
6941;SDS011;3510;43.200;27.920;2023-06-14T10:26:49;2.88;;;2.67;;
6941;SDS011;3510;43.200;27.920;2023-06-14T10:29:18;2.88;;;2.42;;
6941;SDS011;3510;43.200;27.920;2023-06-14T10:31:46;3.78;;;3.00;;
6941;SDS011;3510;43.200;27.920;2023-06-14T10:34:21;2.70;;;2.50;;
6941;SDS011;3510;43.200;27.920;2023-06-14T10:37:02;3.20;;;3.00;;
6941;SDS011;3510;43.200;27.920;2023-06-14T10:39:38;2.90;;;2.70;;
6941;SDS011;3510;43.200;27.920;2023-06-14T10:42:06;2.80;;;2.60;;
6941;SDS011;3510;43.200;27.920;2023-06-14T10:44:39;4.80;;;2.72;;
6941;SDS011;3510;43.200;27.920;2023-06-14T10:47:07;4.78;;;2.70;;
6941;SDS011;3510;43.200;27.920;2023-06-14T10:49:43;4.50;;;3.28;;
6941;SDS011;3510;43.200;27.920;2023-06-14T10:52:12;2.65;;;2.55;;
6941;SDS011;3510;43.200;27.920;2023-06-14T11:00:06;4.53;;;3.00;;
6941;SDS011;3510;43.200;27.920;2023-06-14T11:02:56;3.88;;;2.90;;
6941;SDS011;3510;43.200;27.920;2023-06-14T11:05:58;4.60;;;2.85;;
6941;SDS011;3510;43.200;27.920;2023-06-14T11:11:18;2.60;;;2.50;;
6941;SDS011;3510;43.200;27.920;2023-06-14T11:13:48;3.17;;;2.97;;
6941;SDS011;3510;43.200;27.920;2023-06-14T11:16:18;4.60;;;2.40;;
6941;SDS011;3510;43.200;27.920;2023-06-14T11:18:45;2.72;;;2.47;;
6941;SDS011;3510;43.200;27.920;2023-06-14T11:21:15;2.95;;;2.80;;
6941;SDS011;3510;43.200;27.920;2023-06-14T11:23:50;4.00;;;3.80;;
6941;SDS011;3510;43.200;27.920;2023-06-14T11:26:27;4.72;;;2.85;;
6941;SDS011;3510;43.200;27.920;2023-06-14T11:28:56;4.00;;;2.78;;
6941;SDS011;3510;43.200;27.920;2023-06-14T11:31:25;3.45;;;3.13;;
6941;SDS011;3510;43.200;27.920;2023-06-14T11:33:53;5.35;;;3.55;;
6941;SDS011;3510;43.200;27.920;2023-06-14T11:36:22;3.25;;;2.95;;
6941;SDS011;3510;43.200;27.920;2023-06-14T11:38:49;3.22;;;2.88;;
6941;SDS011;3510;43.200;27.920;2023-06-14T11:41:16;2.90;;;2.67;;
6941;SDS011;3510;43.200;27.920;2023-06-14T11:43:43;2.90;;;2.80;;
6941;SDS011;3510;43.200;27.920;2023-06-14T11:46:12;3.75;;;2.92;;
6941;SDS011;3510;43.200;27.920;2023-06-14T11:48:43;3.05;;;2.75;;
6941;SDS011;3510;43.200;27.920;2023-06-14T11:51:11;3.00;;;2.75;;
6941;SDS011;3510;43.200;27.920;2023-06-14T11:53:42;2.70;;;2.50;;
6941;SDS011;3510;43.200;27.920;2023-06-14T11:56:12;3.03;;;2.83;;
6941;SDS011;3510;43.200;27.920;2023-06-14T11:58:45;5.57;;;3.30;;
6941;SDS011;3510;43.200;27.920;2023-06-14T12:01:14;2.95;;;2.75;;
6941;SDS011;3510;43.200;27.920;2023-06-14T12:03:48;2.97;;;2.78;;
6941;SDS011;3510;43.200;27.920;2023-06-14T12:06:24;4.03;;;2.85;;
6941;SDS011;3510;43.200;27.920;2023-06-14T12:08:55;3.50;;;3.30;;
6941;SDS011;3510;43.200;27.920;2023-06-14T12:11:36;2.88;;;2.75;;
6941;SDS011;3510;43.200;27.920;2023-06-14T12:14:03;3.63;;;3.42;;
6941;SDS011;3510;43.200;27.920;2023-06-14T12:16:31;6.78;;;6.30;;
6941;SDS011;3510;43.200;27.920;2023-06-14T12:19:07;4.18;;;3.80;;
6941;SDS011;3510;43.200;27.920;2023-06-14T12:21:37;7.07;;;3.50;;
6941;SDS011;3510;43.200;27.920;2023-06-14T12:24:09;4.75;;;4.45;;
6941;SDS011;3510;43.200;27.920;2023-06-14T12:26:38;4.75;;;4.45;;
6941;SDS011;3510;43.200;27.920;2023-06-14T12:29:07;4.35;;;4.15;;
6941;SDS011;3510;43.200;27.920;2023-06-14T12:31:35;5.15;;;4.72;;
6941;SDS011;3510;43.200;27.920;2023-06-14T12:34:03;4.63;;;4.32;;
6941;SDS011;3510;43.200;27.920;2023-06-14T12:36:31;5.03;;;4.72;;
6941;SDS011;3510;43.200;27.920;2023-06-14T12:38:59;5.13;;;4.85;;
6941;SDS011;3510;43.200;27.920;2023-06-14T12:41:30;4.90;;;4.53;;
6941;SDS011;3510;43.200;27.920;2023-06-14T12:43:57;5.32;;;4.90;;
6941;SDS011;3510;43.200;27.920;2023-06-14T12:46:26;5.35;;;4.93;;
6941;SDS011;3510;43.200;27.920;2023-06-14T12:48:54;4.63;;;4.32;;
6941;SDS011;3510;43.200;27.920;2023-06-14T12:54:05;5.35;;;4.90;;
6941;SDS011;3510;43.200;27.920;2023-06-14T12:56:32;5.60;;;5.15;;
6941;SDS011;3510;43.200;27.920;2023-06-14T12:59:00;4.72;;;4.43;;
6941;SDS011;3510;43.200;27.920;2023-06-14T13:01:27;5.75;;;5.20;;
6941;SDS011;3510;43.200;27.920;2023-06-14T13:04:03;6.97;;;5.13;;
6941;SDS011;3510;43.200;27.920;2023-06-14T13:06:31;6.63;;;5.55;;
6941;SDS011;3510;43.200;27.920;2023-06-14T13:09:04;6.13;;;5.63;;
6941;SDS011;3510;43.200;27.920;2023-06-14T13:11:33;6.00;;;5.50;;
6941;SDS011;3510;43.200;27.920;2023-06-14T13:14:01;5.90;;;5.38;;
6941;SDS011;3510;43.200;27.920;2023-06-14T13:16:28;5.93;;;5.43;;
6941;SDS011;3510;43.200;27.920;2023-06-14T13:18:55;9.18;;;6.32;;
6941;SDS011;3510;43.200;27.920;2023-06-14T13:21:22;5.97;;;5.63;;
6941;SDS011;3510;43.200;27.920;2023-06-14T13:23:50;6.13;;;4.75;;
6941;SDS011;3510;43.200;27.920;2023-06-14T13:26:21;5.85;;;5.38;;
6941;SDS011;3510;43.200;27.920;2023-06-14T13:28:48;5.40;;;4.78;;
6941;SDS011;3510;43.200;27.920;2023-06-14T13:31:16;4.50;;;4.30;;
6941;SDS011;3510;43.200;27.920;2023-06-14T13:33:44;5.43;;;5.03;;
6941;SDS011;3510;43.200;27.920;2023-06-14T13:36:11;4.68;;;4.30;;
6941;SDS011;3510;43.200;27.920;2023-06-14T13:38:50;4.80;;;4.50;;
6941;SDS011;3510;43.200;27.920;2023-06-14T13:41:22;7.55;;;6.85;;
6941;SDS011;3510;43.200;27.920;2023-06-14T13:46:24;5.40;;;4.72;;
6941;SDS011;3510;43.200;27.920;2023-06-14T13:48:52;4.60;;;4.30;;
6941;SDS011;3510;43.200;27.920;2023-06-14T13:51:20;4.25;;;4.05;;
6941;SDS011;3510;43.200;27.920;2023-06-14T14:02:07;4.47;;;4.20;;
6941;SDS011;3510;43.200;27.920;2023-06-14T14:04:36;5.32;;;4.72;;
6941;SDS011;3510;43.200;27.920;2023-06-14T14:07:17;6.10;;;4.10;;
6941;SDS011;3510;43.200;27.920;2023-06-14T14:09:58;5.43;;;4.47;;
6941;SDS011;3510;43.200;27.920;2023-06-14T14:12:40;5.43;;;5.13;;
6941;SDS011;3510;43.200;27.920;2023-06-14T14:21:53;5.97;;;5.47;;
6941;SDS011;3510;43.200;27.920;2023-06-14T14:24:23;5.97;;;5.57;;
6941;SDS011;3510;43.200;27.920;2023-06-14T14:26:58;5.65;;;5.25;;
6941;SDS011;3510;43.200;27.920;2023-06-14T14:29:29;5.38;;;5.07;;
6941;SDS011;3510;43.200;27.920;2023-06-14T14:32:10;5.50;;;5.20;;
6941;SDS011;3510;43.200;27.920;2023-06-14T14:34:50;5.82;;;5.25;;
6941;SDS011;3510;43.200;27.920;2023-06-14T14:37:19;11.93;;;6.20;;
6941;SDS011;3510;43.200;27.920;2023-06-14T14:39:46;5.05;;;4.75;;
6941;SDS011;3510;43.200;27.920;2023-06-14T14:42:13;5.47;;;4.57;;
6941;SDS011;3510;43.200;27.920;2023-06-14T14:44:40;5.53;;;5.13;;
6941;SDS011;3510;43.200;27.920;2023-06-14T14:47:07;6.40;;;5.80;;
6941;SDS011;3510;43.200;27.920;2023-06-14T14:49:35;4.88;;;4.47;;
6941;SDS011;3510;43.200;27.920;2023-06-14T14:52:01;5.68;;;5.15;;
6941;SDS011;3510;43.200;27.920;2023-06-14T14:54:29;5.40;;;5.10;;
6941;SDS011;3510;43.200;27.920;2023-06-14T14:56:56;8.73;;;6.88;;
6941;SDS011;3510;43.200;27.920;2023-06-14T14:59:23;6.50;;;5.60;;
6941;SDS011;3510;43.200;27.920;2023-06-14T15:01:59;9.15;;;5.68;;
6941;SDS011;3510;43.200;27.920;2023-06-14T15:04:26;5.95;;;5.53;;
6941;SDS011;3510;43.200;27.920;2023-06-14T15:06:53;5.97;;;5.55;;
6941;SDS011;3510;43.200;27.920;2023-06-14T15:09:20;5.72;;;4.90;;
6941;SDS011;3510;43.200;27.920;2023-06-14T15:11:48;6.43;;;5.80;;
6941;SDS011;3510;43.200;27.920;2023-06-14T15:14:15;6.50;;;5.95;;
6941;SDS011;3510;43.200;27.920;2023-06-14T15:16:42;7.05;;;6.30;;
6941;SDS011;3510;43.200;27.920;2023-06-14T15:19:09;6.07;;;5.50;;
6941;SDS011;3510;43.200;27.920;2023-06-14T15:21:36;6.28;;;5.88;;
6941;SDS011;3510;43.200;27.920;2023-06-14T15:24:03;7.00;;;6.40;;
6941;SDS011;3510;43.200;27.920;2023-06-14T15:26:30;6.32;;;5.78;;
6941;SDS011;3510;43.200;27.920;2023-06-14T15:28:58;6.75;;;6.15;;
6941;SDS011;3510;43.200;27.920;2023-06-14T15:31:24;6.05;;;5.70;;
6941;SDS011;3510;43.200;27.920;2023-06-14T15:33:53;6.25;;;5.60;;
6941;SDS011;3510;43.200;27.920;2023-06-14T15:36:19;6.40;;;5.90;;
6941;SDS011;3510;43.200;27.920;2023-06-14T15:38:46;5.55;;;5.07;;
6941;SDS011;3510;43.200;27.920;2023-06-14T15:41:13;5.88;;;5.47;;
6941;SDS011;3510;43.200;27.920;2023-06-14T15:43:40;6.13;;;5.75;;
6941;SDS011;3510;43.200;27.920;2023-06-14T15:46:08;5.97;;;5.50;;
6941;SDS011;3510;43.200;27.920;2023-06-14T15:48:35;5.82;;;5.18;;
6941;SDS011;3510;43.200;27.920;2023-06-14T15:51:02;5.82;;;5.43;;
6941;SDS011;3510;43.200;27.920;2023-06-14T15:53:28;5.63;;;4.80;;
6941;SDS011;3510;43.200;27.920;2023-06-14T15:55:55;7.18;;;5.43;;
6941;SDS011;3510;43.200;27.920;2023-06-14T15:58:22;5.45;;;5.15;;
6941;SDS011;3510;43.200;27.920;2023-06-14T16:00:49;6.72;;;6.07;;
6941;SDS011;3510;43.200;27.920;2023-06-14T16:03:17;6.35;;;5.95;;
6941;SDS011;3510;43.200;27.920;2023-06-14T16:05:44;5.88;;;5.47;;
6941;SDS011;3510;43.200;27.920;2023-06-14T16:08:10;8.43;;;5.85;;